Time;durP1;ratioP1;P1;durP2;ratioP2;P2;SDS_P1;SDS_P2;PMS_P1;PMS_P2;Temp;Humidity;BMP_temperature;BMP_pressure;BME280_temperature;BME280_humidity;BME280_pressure;Samples;Min_cycle;Max_cycle;Signal;HPM_P1;HPM_P2
2022/05/15 00:01:02;;;;;;;23.17;5.85;;;10.60;99.90;;;;;;5055844;28;20045;-68
2022/05/15 00:03:27;;;;;;;23.30;5.72;;;10.60;99.90;;;;;;5058627;28;20087;-67
2022/05/15 00:05:59;;;;;;;24.40;5.63;;;10.50;99.90;;;;;;5053851;28;20068;-67
2022/05/15 00:08:27;;;;;;;24.35;5.13;;;10.50;99.90;;;;;;5053371;28;20037;-67
2022/05/15 00:10:53;;;;;;;15.43;3.88;;;10.50;99.90;;;;;;5054003;28;20116;-68
2022/05/15 00:13:19;;;;;;;15.88;3.75;;;10.50;99.90;;;;;;5083981;28;20535;-68
2022/05/15 00:15:45;;;;;;;18.10;4.32;;;10.50;99.90;;;;;;5052140;28;20136;-67
2022/05/15 00:18:11;;;;;;;23.08;5.57;;;10.50;99.90;;;;;;5048205;28;20044;-67
2022/05/15 00:20:39;;;;;;;15.23;3.85;;;10.40;99.90;;;;;;5053801;28;20037;-67
2022/05/15 00:23:06;;;;;;;13.02;3.65;;;10.40;99.90;;;;;;5055251;28;20697;-67
2022/05/15 00:25:33;;;;;;;8.23;2.38;;;10.40;99.90;;;;;;5051966;28;20040;-67
2022/05/15 00:27:59;;;;;;;9.18;3.25;;;10.30;99.90;;;;;;5050737;28;20522;-67
2022/05/15 00:30:25;;;;;;;14.15;4.05;;;10.20;99.90;;;;;;5047440;28;20126;-68
2022/05/15 00:32:51;;;;;;;16.80;4.47;;;10.20;99.90;;;;;;5080985;28;20049;-67
2022/05/15 00:35:17;;;;;;;19.63;4.65;;;10.10;99.90;;;;;;5047603;28;20041;-67
2022/05/15 00:37:43;;;;;;;21.83;4.78;;;10.20;99.90;;;;;;5055968;28;20128;-67
2022/05/15 00:40:10;;;;;;;20.88;5.03;;;10.20;99.90;;;;;;5078485;28;20051;-67
2022/05/15 00:42:36;;;;;;;24.13;4.88;;;10.20;99.90;;;;;;5079696;28;20044;-67
2022/05/15 00:45:04;;;;;;;23.35;4.88;;;10.20;99.90;;;;;;5053885;28;20037;-67
2022/05/15 00:47:29;;;;;;;18.42;4.47;;;10.10;99.90;;;;;;5049804;28;20041;-67
2022/05/15 00:49:55;;;;;;;25.75;4.82;;;10.10;99.90;;;;;;5053818;28;20035;-67
2022/05/15 00:52:26;;;;;;;22.65;5.35;;;10.10;99.90;;;;;;5050575;28;20052;-67
2022/05/15 00:54:57;;;;;;;22.58;5.85;;;10.10;99.90;;;;;;5053530;28;20067;-67
2022/05/15 00:57:26;;;;;;;26.25;5.25;;;10.10;99.90;;;;;;5049561;28;20375;-67
2022/05/15 01:00:05;;;;;;;30.52;6.30;;;10.10;99.90;;;;;;5079779;28;20052;-67
2022/05/15 01:02:34;;;;;;;23.83;5.13;;;10.10;99.90;;;;;;5053021;28;20037;-67
2022/05/15 01:05:01;;;;;;;19.98;4.15;;;10.10;99.90;;;;;;5054413;28;20064;-67
2022/05/15 01:07:27;;;;;;;18.77;4.93;;;10.10;99.90;;;;;;5050030;28;20118;-67
2022/05/15 01:09:53;;;;;;;26.42;5.55;;;10.10;99.90;;;;;;5083254;28;20083;-67
2022/05/15 01:12:19;;;;;;;25.73;6.00;;;10.10;99.90;;;;;;5076852;28;20045;-67
2022/05/15 01:14:47;;;;;;;20.13;5.28;;;10.10;99.90;;;;;;5085161;28;20576;-68
2022/05/15 01:17:13;;;;;;;22.10;4.63;;;10.10;99.90;;;;;;5050709;28;20049;-67
2022/05/15 01:19:41;;;;;;;21.13;5.18;;;10.10;99.90;;;;;;5048583;28;20079;-66
2022/05/15 01:22:11;;;;;;;14.57;4.47;;;10.10;99.90;;;;;;5050086;28;20040;-67
2022/05/15 01:24:37;;;;;;;22.63;4.75;;;10.10;99.90;;;;;;5056610;28;20054;-67
2022/05/15 01:27:07;;;;;;;23.85;4.13;;;10.10;99.90;;;;;;5048540;28;20077;-67
2022/05/15 01:29:35;;;;;;;27.42;6.07;;;10.10;99.90;;;;;;5052125;28;20395;-67
2022/05/15 01:32:02;;;;;;;24.63;5.43;;;10.10;99.90;;;;;;5051058;28;20411;-67
2022/05/15 01:34:27;;;;;;;24.08;5.32;;;10.00;99.90;;;;;;5056814;28;20359;-67
2022/05/15 01:36:54;;;;;;;24.48;6.55;;;10.00;99.90;;;;;;5078642;28;20068;-67
2022/05/15 01:39:20;;;;;;;17.15;4.63;;;10.10;99.90;;;;;;5083139;28;20094;-67
2022/05/15 01:41:46;;;;;;;17.92;4.25;;;10.00;99.90;;;;;;5053072;28;20117;-67
2022/05/15 01:44:12;;;;;;;23.48;5.65;;;10.00;99.90;;;;;;5048957;28;20047;-67
2022/05/15 01:46:37;;;;;;;18.95;4.90;;;10.00;99.90;;;;;;5048083;28;20032;-67
2022/05/15 01:49:06;;;;;;;21.05;4.30;;;10.00;99.90;;;;;;5077419;28;20142;-67
2022/05/15 01:51:33;;;;;;;18.95;4.50;;;9.90;99.90;;;;;;5057007;28;20044;-67
2022/05/15 01:54:00;;;;;;;17.30;3.95;;;9.90;99.90;;;;;;5051116;28;20047;-67
2022/05/15 01:56:26;;;;;;;22.17;5.35;;;9.90;99.90;;;;;;5037365;28;20033;-67
2022/05/15 01:58:52;;;;;;;14.13;4.32;;;9.90;99.90;;;;;;5057008;28;20367;-67
2022/05/15 02:01:17;;;;;;;11.25;4.15;;;9.90;99.90;;;;;;5087271;28;20179;-67
2022/05/15 02:03:43;;;;;;;19.42;4.15;;;9.80;99.90;;;;;;5088440;28;20048;-67
2022/05/15 02:06:09;;;;;;;12.82;3.88;;;9.70;99.90;;;;;;5055030;28;20037;-67
2022/05/15 02:08:36;;;;;;;14.15;3.80;;;9.70;99.90;;;;;;5056150;28;20563;-67
2022/05/15 02:11:02;;;;;;;11.30;3.53;;;9.60;99.90;;;;;;5085698;28;20499;-67
2022/05/15 02:13:28;;;;;;;13.63;3.40;;;9.50;99.90;;;;;;5052941;28;20060;-67
2022/05/15 02:15:54;;;;;;;12.50;3.25;;;9.50;99.90;;;;;;5050258;28;20087;-67
2022/05/15 02:18:19;;;;;;;14.27;4.50;;;9.50;99.90;;;;;;5053777;28;20518;-67
2022/05/15 02:20:45;;;;;;;17.17;4.80;;;9.40;99.90;;;;;;5085717;28;20048;-67
2022/05/15 02:23:10;;;;;;;11.93;4.50;;;9.40;99.90;;;;;;5054034;28;20040;-67
2022/05/15 02:25:37;;;;;;;12.43;3.70;;;9.40;99.90;;;;;;5086609;28;20636;-67
2022/05/15 02:28:04;;;;;;;10.95;3.80;;;9.30;99.90;;;;;;5051376;28;20040;-67
2022/05/15 02:30:29;;;;;;;12.65;3.97;;;9.20;99.90;;;;;;5088980;28;20045;-67
2022/05/15 02:32:55;;;;;;;11.10;4.28;;;9.10;99.90;;;;;;5051780;28;20052;-67
2022/05/15 02:35:21;;;;;;;18.15;3.42;;;9.10;99.90;;;;;;5055307;28;20091;-67
2022/05/15 02:37:47;;;;;;;15.52;3.53;;;9.00;99.90;;;;;;5052334;28;20483;-67
2022/05/15 02:40:15;;;;;;;15.57;4.18;;;9.00;99.90;;;;;;5086701;28;20070;-67
2022/05/15 02:42:40;;;;;;;12.73;3.47;;;9.00;99.90;;;;;;5056109;28;20045;-67
2022/05/15 02:45:07;;;;;;;21.25;4.68;;;8.90;99.90;;;;;;5055122;28;20048;-67
2022/05/15 02:47:33;;;;;;;15.02;4.70;;;8.90;99.90;;;;;;5055007;28;20029;-66
2022/05/15 02:52:46;;;;;;;15.70;4.53;;;8.90;99.90;;;;;;5052719;28;20048;-67
2022/05/15 02:55:11;;;;;;;17.08;4.82;;;8.90;99.90;;;;;;5052912;28;20044;-67
2022/05/15 02:57:40;;;;;;;20.88;4.57;;;8.90;99.90;;;;;;5056487;28;20052;-67
2022/05/15 03:00:08;;;;;;;20.08;5.78;;;8.90;99.90;;;;;;5055502;28;20033;-67
2022/05/15 03:02:36;;;;;;;30.30;5.47;;;8.90;99.90;;;;;;5091181;28;20539;-67
2022/05/15 03:05:02;;;;;;;30.45;6.03;;;8.90;99.90;;;;;;5055402;28;20059;-67
2022/05/15 03:07:28;;;;;;;18.42;4.93;;;8.90;99.90;;;;;;5049226;28;20040;-66
2022/05/15 03:09:53;;;;;;;26.73;5.53;;;9.00;99.90;;;;;;5084764;28;20407;-67
2022/05/15 03:12:19;;;;;;;24.10;5.65;;;9.00;99.90;;;;;;5050955;28;20086;-67
2022/05/15 03:14:45;;;;;;;21.38;5.57;;;9.00;99.90;;;;;;5052643;28;20098;-67
2022/05/15 03:17:10;;;;;;;20.48;5.55;;;9.00;99.90;;;;;;5048868;28;20046;-67
2022/05/15 03:19:36;;;;;;;20.70;5.65;;;9.00;99.90;;;;;;5050215;28;20065;-67
2022/05/15 03:22:02;;;;;;;21.45;5.15;;;9.00;99.90;;;;;;5051788;28;20490;-67
2022/05/15 03:24:27;;;;;;;14.25;4.25;;;9.00;99.90;;;;;;5053677;28;20509;-67
2022/05/15 03:26:53;;;;;;;28.10;5.95;;;9.10;99.90;;;;;;5047070;28;20131;-68
2022/05/15 03:29:19;;;;;;;18.42;4.70;;;9.00;99.90;;;;;;5078714;28;20057;-67
2022/05/15 03:31:46;;;;;;;22.05;5.55;;;9.10;99.90;;;;;;5085906;28;20041;-67
2022/05/15 03:34:14;;;;;;;14.23;4.13;;;9.10;99.90;;;;;;5051602;28;20050;-67
2022/05/15 03:36:41;;;;;;;23.42;5.45;;;9.10;99.90;;;;;;5083266;28;20041;-67
2022/05/15 03:39:08;;;;;;;22.70;5.65;;;9.10;99.90;;;;;;5086651;28;20059;-67
2022/05/15 03:41:34;;;;;;;24.35;5.20;;;9.10;99.90;;;;;;5086714;28;20049;-67
2022/05/15 03:44:00;;;;;;;28.33;5.68;;;9.10;99.90;;;;;;5084543;28;20068;-67
2022/05/15 03:46:26;;;;;;;22.10;5.45;;;9.10;99.90;;;;;;5078872;28;20137;-67
2022/05/15 03:48:52;;;;;;;24.38;5.65;;;9.10;99.90;;;;;;5082530;28;20036;-67
2022/05/15 03:51:18;;;;;;;18.63;5.43;;;9.10;99.90;;;;;;5052971;28;20041;-67
2022/05/15 03:53:43;;;;;;;29.27;5.70;;;9.20;99.90;;;;;;5059380;28;20036;-67
2022/05/15 03:56:09;;;;;;;19.40;4.78;;;9.10;99.90;;;;;;5087018;28;20076;-66
2022/05/15 03:58:36;;;;;;;25.48;6.63;;;9.10;99.90;;;;;;5084703;28;20052;-67
2022/05/15 04:01:04;;;;;;;17.98;4.75;;;9.10;99.90;;;;;;5054449;28;20039;-67
2022/05/15 04:03:31;;;;;;;19.17;5.18;;;9.20;99.90;;;;;;5050992;28;20040;-67
2022/05/15 04:05:57;;;;;;;15.95;5.60;;;9.10;99.90;;;;;;5082161;28;20047;-67
2022/05/15 04:08:23;;;;;;;20.83;6.15;;;9.20;99.90;;;;;;5058908;28;20114;-67
2022/05/15 04:10:49;;;;;;;24.15;5.82;;;9.30;99.90;;;;;;5050502;28;20053;-67
2022/05/15 04:13:15;;;;;;;26.77;5.03;;;9.30;99.90;;;;;;5055730;28;20043;-67
2022/05/15 04:15:40;;;;;;;15.55;4.63;;;9.40;99.90;;;;;;5049542;28;20037;-67
2022/05/15 04:18:09;;;;;;;25.10;5.82;;;9.50;99.90;;;;;;5053001;28;20068;-67
2022/05/15 04:20:35;;;;;;;17.13;5.25;;;9.60;99.90;;;;;;5050296;28;20041;-67
2022/05/15 04:23:00;;;;;;;15.43;4.63;;;9.80;99.90;;;;;;5080887;28;20045;-67
2022/05/15 04:25:26;;;;;;;15.10;4.25;;;9.90;99.90;;;;;;5048442;28;20118;-67
2022/05/15 04:27:51;;;;;;;22.48;4.85;;;10.00;99.90;;;;;;5054982;28;20040;-67
2022/05/15 04:30:21;;;;;;;22.95;5.88;;;10.10;99.90;;;;;;5059491;28;20037;-67
2022/05/15 04:32:46;;;;;;;15.55;4.50;;;10.30;99.90;;;;;;5083221;28;20045;-67
2022/05/15 04:35:12;;;;;;;22.90;5.47;;;10.40;99.90;;;;;;5034841;28;20044;-66
2022/05/15 04:37:41;;;;;;;21.08;5.82;;;10.50;99.90;;;;;;5053387;28;20040;-67
2022/05/15 04:40:08;;;;;;;19.95;5.15;;;10.60;99.90;;;;;;5054401;28;20123;-67
2022/05/15 04:42:34;;;;;;;19.63;4.78;;;10.70;99.90;;;;;;5079474;28;20052;-67
2022/05/15 04:45:00;;;;;;;22.98;5.50;;;10.80;99.90;;;;;;5053734;28;20044;-67
2022/05/15 04:47:25;;;;;;;17.92;5.45;;;11.00;99.90;;;;;;5051604;28;20040;-67
2022/05/15 04:49:51;;;;;;;22.58;5.50;;;11.10;99.90;;;;;;5055623;28;20037;-67
2022/05/15 04:52:17;;;;;;;12.73;4.40;;;11.30;99.90;;;;;;5050663;28;20044;-67
2022/05/15 04:54:43;;;;;;;23.05;4.78;;;11.60;99.90;;;;;;5052959;28;20512;-67
2022/05/15 04:57:08;;;;;;;16.50;5.43;;;11.80;99.90;;;;;;5049988;28;20045;-67
2022/05/15 04:59:34;;;;;;;18.45;6.03;;;11.90;99.90;;;;;;5052037;28;20037;-67
2022/05/15 05:02:00;;;;;;;16.85;5.35;;;12.00;99.90;;;;;;5047033;28;20040;-67
2022/05/15 05:04:26;;;;;;;16.55;5.20;;;12.10;99.90;;;;;;5050495;28;20056;-67
2022/05/15 05:06:52;;;;;;;21.33;5.55;;;12.30;99.90;;;;;;5038299;28;20579;-67
2022/05/15 05:09:18;;;;;;;17.27;4.32;;;12.80;99.90;;;;;;5050595;28;20044;-67
2022/05/15 05:11:44;;;;;;;17.50;5.55;;;13.60;99.90;;;;;;5050578;28;20040;-67
2022/05/15 05:14:10;;;;;;;18.02;5.45;;;14.70;99.90;;;;;;5047780;28;20068;-67
2022/05/15 05:16:35;;;;;;;15.88;5.07;;;15.70;99.90;;;;;;5051633;28;20040;-67
2022/05/15 05:19:03;;;;;;;16.15;4.60;;;16.80;99.90;;;;;;5053538;28;20064;-67
2022/05/15 05:21:29;;;;;;;20.45;5.00;;;17.80;99.90;;;;;;5055336;28;20047;-67
2022/05/15 05:23:55;;;;;;;16.50;4.50;;;18.60;99.90;;;;;;5053453;28;20591;-67
2022/05/15 05:26:21;;;;;;;18.50;4.78;;;19.50;99.90;;;;;;5053036;28;20119;-67
2022/05/15 05:28:47;;;;;;;18.30;5.30;;;20.30;99.90;;;;;;5050689;28;20040;-67
2022/05/15 05:31:14;;;;;;;23.85;5.25;;;21.00;98.40;;;;;;5051160;28;20043;-67
2022/05/15 05:33:40;;;;;;;13.55;3.72;;;21.20;96.20;;;;;;5084222;28;20048;-67
2022/05/15 05:36:07;;;;;;;15.90;4.55;;;21.40;95.20;;;;;;5045023;28;20107;-68
2022/05/15 05:38:34;;;;;;;18.00;5.22;;;21.50;94.30;;;;;;5047381;28;20033;-68
2022/05/15 05:40:59;;;;;;;17.83;4.80;;;21.20;93.40;;;;;;5081197;28;20040;-67
2022/05/15 05:43:25;;;;;;;18.92;5.63;;;20.80;94.10;;;;;;5056257;28;20446;-67
2022/05/15 05:45:51;;;;;;;19.80;5.15;;;20.40;94.60;;;;;;5046726;28;20047;-68
2022/05/15 05:48:16;;;;;;;17.98;5.40;;;20.10;95.80;;;;;;5051290;28;20482;-68
2022/05/15 05:50:42;;;;;;;15.00;5.15;;;19.90;96.30;;;;;;5047359;28;20029;-68
2022/05/15 05:53:09;;;;;;;21.38;5.10;;;19.70;96.00;;;;;;5047883;28;20102;-68
2022/05/15 05:55:35;;;;;;;17.23;4.32;;;19.50;96.60;;;;;;5050900;28;20032;-68
2022/05/15 05:58:02;;;;;;;17.83;5.38;;;19.40;97.10;;;;;;5049395;28;20494;-67
2022/05/15 06:00:32;;;;;;;16.73;4.82;;;19.30;97.10;;;;;;5050703;28;20453;-67
2022/05/15 06:05:44;;;;;;;16.40;4.32;;;19.10;96.70;;;;;;5052774;28;20041;-67
2022/05/15 06:08:10;;;;;;;16.33;4.07;;;19.00;96.70;;;;;;5048880;28;20048;-67
2022/05/15 06:10:36;;;;;;;17.13;4.47;;;19.00;96.40;;;;;;5048108;28;20052;-67
2022/05/15 06:13:03;;;;;;;17.45;4.32;;;18.80;96.20;;;;;;5048859;28;20055;-67
2022/05/15 06:15:29;;;;;;;17.48;4.30;;;18.80;96.40;;;;;;5049118;28;20163;-67
2022/05/15 06:18:01;;;;;;;16.80;4.25;;;18.70;96.20;;;;;;5049194;28;20074;-68
2022/05/15 06:20:27;;;;;;;17.08;5.38;;;18.70;96.50;;;;;;5048629;28;20047;-67
2022/05/15 06:22:53;;;;;;;15.25;3.85;;;18.80;96.30;;;;;;5050928;28;20037;-67
2022/05/15 06:25:19;;;;;;;18.20;4.57;;;18.90;95.90;;;;;;5053215;28;20629;-67
2022/05/15 06:27:44;;;;;;;18.20;4.05;;;19.00;95.60;;;;;;5042640;28;20190;-67
2022/05/15 06:30:12;;;;;;;12.40;3.42;;;19.00;95.20;;;;;;5048239;28;20128;-67
2022/05/15 06:32:39;;;;;;;15.20;4.80;;;19.10;95.40;;;;;;5048355;28;20061;-67
2022/05/15 06:35:06;;;;;;;13.15;3.30;;;19.20;95.60;;;;;;5079339;28;20045;-67
2022/05/15 06:37:31;;;;;;;12.98;4.60;;;19.40;95.90;;;;;;5053259;28;20041;-67
2022/05/15 06:39:57;;;;;;;27.10;4.30;;;19.60;96.10;;;;;;5052724;28;20047;-67
2022/05/15 06:42:23;;;;;;;14.77;3.65;;;19.90;95.90;;;;;;5059748;28;20048;-67
2022/05/15 06:44:49;;;;;;;15.18;4.43;;;20.00;94.50;;;;;;5057534;28;20029;-67
2022/05/15 06:47:15;;;;;;;15.45;4.47;;;20.20;94.50;;;;;;5083347;28;20847;-67
2022/05/15 06:49:40;;;;;;;15.43;4.68;;;20.30;93.60;;;;;;5054217;28;20037;-67
2022/05/15 06:52:06;;;;;;;20.23;4.50;;;20.30;93.80;;;;;;5052859;28;20132;-67
2022/05/15 06:54:33;;;;;;;15.55;3.80;;;20.60;93.90;;;;;;5053980;28;20036;-67
2022/05/15 06:59:44;;;;;;;14.10;3.42;;;20.80;92.90;;;;;;5054660;28;20049;-67
2022/05/15 07:02:10;;;;;;;12.73;3.28;;;20.70;91.60;;;;;;5045491;28;20086;-67
2022/05/15 07:04:36;;;;;;;12.82;3.83;;;20.70;92.10;;;;;;5036687;28;20123;-67
2022/05/15 07:07:03;;;;;;;13.73;3.97;;;20.70;90.90;;;;;;5049626;28;20139;-67
2022/05/15 07:09:29;;;;;;;13.98;2.92;;;20.50;91.00;;;;;;5046936;28;20112;-67
2022/05/15 07:11:56;;;;;;;10.30;3.75;;;20.40;91.60;;;;;;5052954;28;20091;-67
2022/05/15 07:14:21;;;;;;;15.90;3.90;;;20.50;91.40;;;;;;5046975;28;20434;-67
2022/05/15 07:16:47;;;;;;;16.17;4.53;;;20.50;91.10;;;;;;5048065;28;20057;-67
2022/05/15 07:19:13;;;;;;;16.52;4.15;;;20.50;91.00;;;;;;5041382;28;20040;-67
2022/05/15 07:21:39;;;;;;;13.38;3.38;;;20.40;91.00;;;;;;5048351;28;20140;-67
2022/05/15 07:24:05;;;;;;;17.65;3.30;;;20.40;90.90;;;;;;5050674;28;20037;-67
2022/05/15 07:26:31;;;;;;;13.07;3.63;;;20.50;91.20;;;;;;5051171;28;20659;-67
2022/05/15 07:28:57;;;;;;;12.65;3.45;;;20.50;90.30;;;;;;5047850;28;20052;-67
2022/05/15 07:31:23;;;;;;;17.13;4.25;;;20.50;90.50;;;;;;5050555;28;20056;-67
2022/05/15 07:33:49;;;;;;;19.80;4.00;;;20.50;90.30;;;;;;5076419;28;20132;-66
2022/05/15 07:36:16;;;;;;;14.35;4.00;;;20.60;90.50;;;;;;5081316;28;20128;-67
2022/05/15 07:38:42;;;;;;;12.05;2.78;;;20.50;90.00;;;;;;5048201;28;20045;-67
2022/05/15 07:41:08;;;;;;;11.82;3.42;;;20.50;89.30;;;;;;5052083;28;20080;-67
2022/05/15 07:43:34;;;;;;;14.45;3.50;;;20.50;89.20;;;;;;5048107;28;20044;-67
2022/05/15 07:46:00;;;;;;;13.35;3.67;;;20.50;88.90;;;;;;5051021;28;20048;-67
2022/05/15 07:48:25;;;;;;;12.80;3.55;;;20.50;89.60;;;;;;5049655;28;20052;-67
2022/05/15 07:50:52;;;;;;;16.92;4.53;;;20.50;89.70;;;;;;5052622;28;20033;-67
2022/05/15 07:53:18;;;;;;;15.23;4.28;;;20.50;89.00;;;;;;5047958;28;20053;-67
2022/05/15 07:55:44;;;;;;;14.18;3.45;;;20.40;85.50;;;;;;5051515;28;20035;-67
2022/05/15 07:58:09;;;;;;;15.40;3.70;;;20.40;87.40;;;;;;5049410;28;20045;-67
2022/05/15 08:00:35;;;;;;;14.15;3.08;;;20.30;88.00;;;;;;5054329;28;20058;-66
2022/05/15 08:03:11;;;;;;;11.57;3.72;;;20.20;86.70;;;;;;5049880;28;20048;-66
2022/05/15 08:08:23;;;;;;;12.67;2.93;;;20.30;88.50;;;;;;5050271;28;20049;-67
2022/05/15 08:10:50;;;;;;;13.95;3.20;;;20.50;87.70;;;;;;5081368;28;20306;-66
2022/05/15 08:13:19;;;;;;;19.73;4.63;;;20.70;89.00;;;;;;5046187;28;20049;-67
2022/05/15 08:15:45;;;;;;;13.90;4.03;;;20.70;88.00;;;;;;5053075;28;20472;-67
2022/05/15 08:23:56;;;;;;;18.73;4.93;;;20.80;85.40;;;;;;5043926;28;20056;-66
2022/05/15 08:26:22;;;;;;;15.65;4.28;;;20.90;84.70;;;;;;5055806;28;20557;-67
2022/05/15 08:28:48;;;;;;;13.43;4.07;;;20.80;84.90;;;;;;5046900;28;20045;-67
2022/05/15 08:31:15;;;;;;;12.57;4.00;;;21.00;86.20;;;;;;5053815;28;20031;-67
2022/05/15 08:33:41;;;;;;;13.82;4.28;;;21.10;85.50;;;;;;5083453;28;20440;-67
2022/05/15 08:36:08;;;;;;;14.68;3.42;;;21.20;82.90;;;;;;5053208;28;20046;-67
2022/05/15 08:38:35;;;;;;;18.20;3.85;;;21.40;84.90;;;;;;5052464;28;20037;-67
2022/05/15 08:41:24;;;;;;;16.20;4.68;;;21.50;85.00;;;;;;5053233;28;20045;-67
2022/05/15 08:43:57;;;;;;;24.13;4.35;;;21.60;82.70;;;;;;5051703;28;20045;-67
2022/05/15 08:46:29;;;;;;;20.40;3.97;;;21.60;81.20;;;;;;5047501;28;20094;-67
2022/05/15 08:49:26;;;;;;;13.77;3.88;;;21.50;80.70;;;;;;5050269;28;20033;-67
2022/05/15 08:52:18;;;;;;;16.40;4.40;;;21.60;81.30;;;;;;5049402;28;20052;-67
2022/05/15 08:54:56;;;;;;;17.10;4.35;;;21.60;81.30;;;;;;5080881;28;20033;-67
2022/05/15 08:57:36;;;;;;;17.38;3.28;;;21.60;81.50;;;;;;5047412;28;20071;-66
2022/05/15 09:00:10;;;;;;;23.85;4.05;;;21.80;82.40;;;;;;5081671;28;20033;-67
2022/05/15 09:02:38;;;;;;;17.88;4.22;;;22.00;82.10;;;;;;5051489;28;20040;-67
2022/05/15 09:05:04;;;;;;;21.08;4.43;;;22.00;81.40;;;;;;5084508;28;20047;-67
2022/05/15 09:07:55;;;;;;;19.60;5.18;;;22.10;81.50;;;;;;5050000;28;20037;-67
2022/05/15 09:10:30;;;;;;;15.50;4.38;;;22.20;80.80;;;;;;5054751;28;20060;-67
2022/05/15 09:13:03;;;;;;;16.70;3.83;;;22.20;80.90;;;;;;5047538;28;20048;-66
2022/05/15 09:15:30;;;;;;;17.60;4.18;;;22.10;79.20;;;;;;5048905;28;20087;-67
2022/05/15 09:18:00;;;;;;;20.38;4.93;;;22.10;79.30;;;;;;5056045;28;20090;-66
2022/05/15 09:20:26;;;;;;;13.70;3.17;;;22.10;80.00;;;;;;5048130;28;20087;-65
2022/05/15 09:23:21;;;;;;;16.25;5.28;;;22.30;80.10;;;;;;5050027;28;20463;-67
2022/05/15 09:25:59;;;;;;;12.27;3.38;;;22.20;77.30;;;;;;5050270;28;20037;-66
2022/05/15 09:28:27;;;;;;;17.58;3.13;;;22.40;77.50;;;;;;5049806;28;20040;-67
2022/05/15 09:30:56;;;;;;;16.85;4.65;;;22.40;79.20;;;;;;5043804;28;20487;-67
2022/05/15 09:33:35;;;;;;;15.88;3.80;;;22.50;77.90;;;;;;5046136;28;20136;-67
2022/05/15 09:36:27;;;;;;;18.42;4.47;;;22.60;76.80;;;;;;5048775;28;20040;-66
2022/05/15 09:39:25;;;;;;;31.30;4.43;;;22.50;75.30;;;;;;5052865;28;20128;-65
2022/05/15 09:45:07;;;;;;;15.80;3.80;;;22.30;74.90;;;;;;5048295;28;20045;-64
2022/05/15 09:47:38;;;;;;;14.88;4.05;;;22.40;76.30;;;;;;5048691;28;20045;-65
2022/05/15 09:50:09;;;;;;;19.33;4.63;;;22.50;73.70;;;;;;5085305;28;20483;-66
2022/05/15 09:52:41;;;;;;;17.27;4.40;;;22.60;74.60;;;;;;5051767;28;20089;-66
2022/05/15 09:55:27;;;;;;;15.02;4.55;;;22.50;75.10;;;;;;5049921;28;20079;-66
2022/05/15 09:57:59;;;;;;;17.67;4.05;;;22.50;74.30;;;;;;5046740;28;20088;-65
2022/05/15 10:00:28;;;;;;;15.77;3.60;;;22.40;74.50;;;;;;5052027;28;20045;-67
2022/05/15 10:03:03;;;;;;;20.50;4.80;;;22.50;73.30;;;;;;5050242;28;20036;-66
2022/05/15 10:05:32;;;;;;;17.42;4.70;;;22.50;74.20;;;;;;5052464;28;20059;-64
2022/05/15 10:08:09;;;;;;;15.30;4.50;;;22.50;75.50;;;;;;5080721;28;20080;-66
2022/05/15 10:10:37;;;;;;;17.20;5.00;;;22.70;74.50;;;;;;5048443;28;20087;-66
2022/05/15 10:13:11;;;;;;;17.65;4.15;;;22.70;73.30;;;;;;5046413;28;20049;-66
2022/05/15 10:15:43;;;;;;;17.90;4.70;;;22.80;73.30;;;;;;5052152;28;20049;-67
2022/05/15 10:18:15;;;;;;;13.55;3.63;;;23.00;74.40;;;;;;5053070;28;20037;-66
2022/05/15 10:20:43;;;;;;;16.52;4.47;;;23.10;73.90;;;;;;5054371;28;20124;-66
2022/05/15 10:23:20;;;;;;;15.48;4.13;;;23.10;74.10;;;;;;5087302;28;20562;-66
2022/05/15 10:25:49;;;;;;;16.48;4.00;;;23.10;71.10;;;;;;5050153;28;20398;-66
2022/05/15 10:28:37;;;;;;;15.50;4.18;;;23.00;71.20;;;;;;5082357;28;20075;-65
2022/05/15 10:31:27;;;;;;;18.33;3.53;;;22.90;71.70;;;;;;5051275;28;20036;-65
2022/05/15 10:34:00;;;;;;;12.63;4.35;;;22.90;71.50;;;;;;5055500;28;20052;-65
2022/05/15 10:36:32;;;;;;;21.67;4.45;;;22.90;70.60;;;;;;5042758;28;20136;-66
2022/05/15 10:39:12;;;;;;;18.00;3.80;;;23.00;72.40;;;;;;5052330;28;20538;-66
2022/05/15 10:42:20;;;;;;;18.10;4.75;;;23.10;72.80;;;;;;5051310;28;20044;-66
2022/05/15 10:44:55;;;;;;;13.95;3.80;;;23.20;69.70;;;;;;5025614;28;20069;-65
2022/05/15 10:47:26;;;;;;;13.82;3.45;;;23.20;68.10;;;;;;5079786;28;20491;-65
2022/05/15 10:50:03;;;;;;;11.57;2.80;;;23.00;69.10;;;;;;5058937;28;20049;-66
2022/05/15 10:52:38;;;;;;;15.95;3.70;;;23.10;67.10;;;;;;5053460;28;20374;-66
2022/05/15 10:58:20;;;;;;;12.50;3.70;;;23.30;68.50;;;;;;5055582;28;20295;-66
2022/05/15 11:01:13;;;;;;;14.10;3.92;;;23.40;68.30;;;;;;5034986;28;20459;-66
2022/05/15 11:04:12;;;;;;;16.15;4.43;;;23.30;67.40;;;;;;5054649;28;20049;-66
2022/05/15 11:06:55;;;;;;;13.55;4.25;;;23.30;66.90;;;;;;5055380;28;21000;-66
2022/05/15 11:09:37;;;;;;;17.92;4.18;;;23.40;67.20;;;;;;5050031;28;20123;-66
2022/05/15 11:12:15;;;;;;;17.67;3.42;;;23.50;67.50;;;;;;5049469;28;20119;-66
2022/05/15 11:14:56;;;;;;;10.13;2.85;;;23.70;67.20;;;;;;5052491;28;20541;-66
2022/05/15 11:17:46;;;;;;;15.93;3.88;;;23.70;66.70;;;;;;5053774;28;21669;-66
2022/05/15 11:20:20;;;;;;;17.60;3.80;;;23.80;67.10;;;;;;5052363;28;20037;-66
2022/05/15 11:22:54;;;;;;;10.47;3.13;;;23.90;66.90;;;;;;5051678;28;20528;-66
2022/05/15 11:25:27;;;;;;;15.13;4.28;;;23.90;65.80;;;;;;5056883;28;20052;-66
2022/05/15 11:28:06;;;;;;;13.85;3.28;;;23.90;68.00;;;;;;5050999;28;20163;-66
2022/05/15 11:30:37;;;;;;;11.13;3.20;;;24.00;69.10;;;;;;5036078;28;20037;-65
2022/05/15 11:33:08;;;;;;;11.52;3.97;;;24.00;67.40;;;;;;5055386;28;20155;-65
2022/05/15 11:35:39;;;;;;;20.17;3.58;;;23.80;64.80;;;;;;5048584;28;20045;-65
2022/05/15 11:38:25;;;;;;;13.00;3.17;;;23.60;64.90;;;;;;5053302;28;20093;-65
2022/05/15 11:40:51;;;;;;;16.67;4.47;;;23.30;64.50;;;;;;5056395;28;20430;-65
2022/05/15 11:43:26;;;;;;;12.18;3.42;;;23.00;65.10;;;;;;5052561;28;20059;-66
2022/05/15 11:45:57;;;;;;;12.00;3.08;;;23.00;65.80;;;;;;5059372;28;20069;-66
2022/05/15 11:48:37;;;;;;;11.52;3.08;;;23.00;66.60;;;;;;5053728;28;20045;-66
2022/05/15 11:51:12;;;;;;;16.80;4.35;;;23.10;70.40;;;;;;5051445;28;20048;-66
2022/05/15 11:54:06;;;;;;;14.82;4.00;;;23.20;70.50;;;;;;5057586;28;20102;-66
2022/05/15 11:56:37;;;;;;;16.58;3.20;;;23.30;66.60;;;;;;5048443;28;20048;-65
2022/05/15 11:59:32;;;;;;;14.88;3.65;;;23.40;67.10;;;;;;5052989;28;20054;-66
2022/05/15 12:02:00;;;;;;;11.68;3.63;;;23.60;68.90;;;;;;5050654;28;20048;-65
2022/05/15 12:04:35;;;;;;;11.38;2.80;;;23.70;65.20;;;;;;5085296;28;20474;-66
2022/05/15 12:07:01;;;;;;;10.45;3.80;;;23.80;64.50;;;;;;5050325;28;20047;-65
2022/05/15 12:09:29;;;;;;;10.77;3.35;;;23.90;65.00;;;;;;5084367;28;20041;-65
2022/05/15 12:11:57;;;;;;;12.77;3.20;;;23.90;64.80;;;;;;5087025;28;20136;-66
2022/05/15 12:14:26;;;;;;;15.98;3.30;;;24.00;66.00;;;;;;5048780;28;20049;-65
2022/05/15 12:17:03;;;;;;;10.43;3.03;;;24.10;64.20;;;;;;5051232;28;20048;-65
2022/05/15 12:19:38;;;;;;;11.25;3.38;;;24.00;63.90;;;;;;5052826;28;20047;-65
2022/05/15 12:22:15;;;;;;;10.27;2.90;;;23.90;61.50;;;;;;5053652;28;20033;-65
2022/05/15 12:24:47;;;;;;;17.10;3.22;;;23.90;62.40;;;;;;5055179;28;20037;-66
2022/05/15 12:27:23;;;;;;;12.10;3.65;;;24.10;64.40;;;;;;5052807;28;20040;-66
2022/05/15 12:30:13;;;;;;;16.40;3.55;;;24.20;64.00;;;;;;5045247;28;20067;-69
2022/05/15 12:33:03;;;;;;;14.02;3.95;;;24.40;63.40;;;;;;5046899;28;20171;-66
2022/05/15 12:35:38;;;;;;;12.15;3.78;;;24.50;63.50;;;;;;5052059;28;20051;-66
2022/05/15 12:38:15;;;;;;;10.52;2.67;;;24.20;61.70;;;;;;5056678;28;20044;-67
2022/05/15 12:40:52;;;;;;;9.52;3.10;;;24.20;61.80;;;;;;5051653;28;20077;-67
2022/05/15 12:43:30;;;;;;;11.00;3.17;;;24.10;62.10;;;;;;5049167;28;20051;-67
2022/05/15 12:45:56;;;;;;;13.48;3.33;;;23.90;60.10;;;;;;5054148;28;20033;-68
2022/05/15 12:48:22;;;;;;;11.35;3.97;;;24.00;59.00;;;;;;5052622;28;20479;-68
2022/05/15 12:51:16;;;;;;;12.88;2.42;;;24.00;63.10;;;;;;5049991;28;20044;-68
2022/05/15 12:53:47;;;;;;;15.40;4.30;;;23.90;60.20;;;;;;5049630;28;20053;-67
2022/05/15 12:56:35;;;;;;;13.82;2.85;;;24.10;61.40;;;;;;5076947;28;20120;-67
2022/05/15 12:59:08;;;;;;;13.25;2.95;;;24.10;60.70;;;;;;5048359;28;20043;-66
2022/05/15 13:01:34;;;;;;;14.90;3.42;;;24.00;61.30;;;;;;5078999;28;20044;-66
2022/05/15 13:04:02;;;;;;;11.18;3.08;;;23.90;61.60;;;;;;5053204;28;20041;-67
2022/05/15 13:06:36;;;;;;;11.65;3.28;;;24.10;62.20;;;;;;5050879;28;20037;-66
2022/05/15 13:09:09;;;;;;;13.38;2.63;;;24.00;60.60;;;;;;5051004;28;20037;-66
2022/05/15 13:11:45;;;;;;;9.38;2.83;;;24.00;60.10;;;;;;5051394;28;20121;-67
2022/05/15 13:14:37;;;;;;;8.25;2.45;;;24.00;60.60;;;;;;5046858;28;20045;-66